ASN logo
ASN Wikibase Occurrence # 199903
Last updated: 20 October 2017
This information is added by users of ASN. Neither ASN nor the Flight Safety Foundation are responsible for the completeness or correctness of this information. If you feel this information is incomplete or incorrect, you can submit corrected information.

Date:22-SEP-2017
Time:08:54 LT
Type:Silhouette image of generic A333 model; specific model in this crash may look slightly different
Airbus A330-343
Owner/operator:Hong Kong Airlines
Registration: B-LNS
C/n / msn: 1105
Fatalities:Fatalities: 0 / Occupants:
Other fatalities:0
Airplane damage: None
Location:Hong Kong-Chek Lap Kok International Airport (HKG/VHHH) -   Hong Kong
Phase: Take off
Nature:International Scheduled Passenger
Departure airport:Hong Kong-Chek Lap Kok International Airport (HKG/VHHH)
Destination airport:Shanghai-Pudong International Airport (PVG/ZSPD)
Narrative:
Hong Kong Airlines HX236, an Airbus A330-343, aborted the takeoff roll at Hong Kong-Chek Lap Kok International Airport in a runway incursion incident involving a Boeing 747.

A Boeing 747-400F, registered OM-ACB and operated by Air Cargo Global as flight CCC831, landed on runway 07L at Chek Lap Kok Airport following a flight from Turkmenbashi. The aircraft taxied to the cargo apron on the south of the airfield. This necessitated crossing runway 07R, which was being used for departures.
Flight HX236 was cleared for takeoff by the Tower controller and at 08:54, the aircraft began rolling for takeoff. At the same time, flight CCC831 crossed the active runway at taxiway J6, which is located 1700 m from the threshold of runway 07R. The aircraft had been instructed by the Ground Controller to taxi to their parking position C12 via taxiways K4 and L2. There was no explicit clearance to cross the runway.
The flight crew of the Airbus A330 aborted their takeoff roll and left the runway via J6. The aircraft subsequently took off uneventfully.


Weather about the time of the incident (08:54 LT / 00:55Z)
>> VHHH 220100Z 09005KT 9999 FEW010 SCT028 27/25 Q1011 NOSIG
VHHH 220030Z 06005KT 9999 -SHRA FEW005 SCT028 26/25 Q1011 TEMPO 4000 SHRA

Sources:

https://www.flightradar24.com/2017-09-22/00:54/12x/CRK236/ef293c6
VHHH aerodrome chart: http://www.hkatc.gov.hk/HK_AIP/AIP/AD/HK_AD2-80A.pdf


Images:


Revision history:

Date/timeContributorUpdates
22-Sep-2017 19:52 harro Added
22-Sep-2017 19:54 harro Updated [Time, Narrative]
22-Sep-2017 20:08 aquiros Updated [Narrative]
22-Sep-2017 20:28 harro Updated [Narrative]
22-Sep-2017 20:44 harro Updated [Source, Narrative]

Corrections or additions? ... Edit this accident description